createdAt,value
2022-11-20T00:03:27.253Z,95668.09
2022-11-20T00:07:39.526Z,95671.16
2022-11-20T00:11:51.776Z,95666.03
2022-11-20T00:16:06.687Z,95674.00
2022-11-20T00:20:19.031Z,95674.66
2022-11-20T00:24:31.262Z,95674.34
2022-11-20T00:28:44.824Z,95683.66
2022-11-20T00:33:02.008Z,95690.69
2022-11-20T00:37:14.300Z,95674.03
2022-11-20T00:41:28.655Z,95694.88
2022-11-20T00:45:42.196Z,95691.94
2022-11-20T00:49:54.438Z,95689.81
2022-11-20T00:54:07.047Z,95689.31
2022-11-20T00:58:19.295Z,95694.56
2022-11-20T01:02:31.525Z,95686.59
2022-11-20T01:06:43.779Z,95689.00
2022-11-20T01:11:00.897Z,95692.94
2022-11-20T01:15:13.197Z,95700.72
2022-11-20T01:19:26.009Z,95701.41
2022-11-20T01:23:40.927Z,95708.63
2022-11-20T01:27:53.151Z,95704.06
2022-11-20T01:32:05.569Z,95696.16
2022-11-20T01:36:19.459Z,95708.84
2022-11-20T01:40:31.695Z,95708.50
2022-11-20T01:44:56.857Z,95707.75
2022-11-20T01:49:21.291Z,95711.56
2022-11-20T01:53:38.350Z,95705.47
2022-11-20T01:57:51.698Z,95701.69
2022-11-20T02:02:03.960Z,95708.19
2022-11-20T02:06:29.681Z,95700.16
2022-11-20T02:10:41.931Z,95706.97
2022-11-20T02:14:54.193Z,95704.22
2022-11-20T02:19:11.550Z,95713.94
2022-11-20T02:24:03.053Z,95705.59
2022-11-20T02:28:15.347Z,95711.50
2022-11-20T02:32:38.196Z,95708.44
2022-11-20T02:36:51.823Z,95712.72
2022-11-20T02:41:04.069Z,95717.69
2022-11-20T02:45:16.291Z,95715.47
2022-11-20T02:49:28.557Z,95715.16
2022-11-20T02:53:41.575Z,95710.31
2022-11-20T02:57:59.963Z,95704.19
2022-11-20T03:02:12.209Z,95700.13
2022-11-20T03:06:24.450Z,95711.81
2022-11-20T03:10:36.670Z,95707.25
2022-11-20T03:14:52.787Z,95702.09
2022-11-20T03:19:05.609Z,95693.34
2022-11-20T03:23:17.834Z,95694.31
2022-11-20T03:27:34.368Z,95706.28
2022-11-20T03:31:46.721Z,95701.25
2022-11-20T03:36:03.506Z,95705.97
2022-11-20T03:40:15.881Z,95711.09
2022-11-20T03:44:28.102Z,95701.88
2022-11-20T03:48:40.360Z,95700.47
2022-11-20T03:52:52.662Z,95698.97
2022-11-20T03:57:05.043Z,95697.88
2022-11-20T04:01:23.747Z,95702.66
2022-11-20T04:05:36.097Z,95702.13
2022-11-20T04:09:48.334Z,95718.56
2022-11-20T04:14:02.790Z,95719.97
2022-11-20T04:18:15.122Z,95709.00
2022-11-20T04:22:27.411Z,95712.97
2022-11-20T04:26:40.220Z,95708.69
2022-11-20T04:30:52.466Z,95712.53
2022-11-20T04:35:11.274Z,95711.44
2022-11-20T04:39:23.827Z,95712.22
2022-11-20T04:43:36.277Z,95710.56
2022-11-20T04:47:48.506Z,95709.91
2022-11-20T04:52:00.746Z,95709.34
2022-11-20T04:56:14.536Z,95710.16
2022-11-20T05:00:26.767Z,95711.88
2022-11-20T05:04:43.041Z,95708.06
2022-11-20T05:08:55.273Z,95721.75
2022-11-20T05:13:07.511Z,95717.16
2022-11-20T05:17:19.869Z,95712.59
2022-11-20T05:21:32.398Z,95707.22
2022-11-20T05:25:44.628Z,95712.97
2022-11-20T05:29:56.900Z,95712.66
2022-11-20T05:34:09.342Z,95714.00
2022-11-20T05:38:21.558Z,95711.97
2022-11-20T05:42:34.007Z,95707.47
2022-11-20T05:46:46.223Z,95707.44
2022-11-20T05:51:00.092Z,95714.69
2022-11-20T05:55:12.346Z,95700.56
2022-11-20T05:59:24.599Z,95710.00
2022-11-20T06:03:37.864Z,95710.25
2022-11-20T06:07:50.102Z,95708.91
2022-11-20T06:12:02.390Z,95715.00
2022-11-20T06:16:17.426Z,95721.44
2022-11-20T06:20:29.662Z,95721.44
2022-11-20T06:24:41.898Z,95719.84
2022-11-20T06:28:55.118Z,95716.66
2022-11-20T06:33:07.334Z,95714.78
2022-11-20T06:37:19.562Z,95720.59
2022-11-20T06:41:32.031Z,95729.13
2022-11-20T06:45:44.559Z,95730.22
2022-11-20T06:49:56.798Z,95731.00
2022-11-20T06:54:09.147Z,95746.63
2022-11-20T06:58:21.390Z,95755.19
2022-11-20T07:02:33.644Z,95759.88
2022-11-20T07:06:45.854Z,95755.81
2022-11-20T07:11:05.451Z,95754.00
2022-11-20T07:15:17.739Z,95758.94
2022-11-20T07:19:30.440Z,95759.34
2022-11-20T07:23:42.708Z,95758.88
2022-11-20T07:27:58.226Z,95775.13
2022-11-20T07:32:10.449Z,95764.94
2022-11-20T07:36:22.734Z,95770.91
2022-11-20T07:40:34.964Z,95770.28
2022-11-20T07:44:47.198Z,95751.28
2022-11-20T07:48:59.482Z,95753.06
2022-11-20T07:53:11.910Z,95767.75
2022-11-20T07:57:28.128Z,95769.88
2022-11-20T08:01:41.775Z,95767.44
2022-11-20T08:05:54.302Z,95769.63
2022-11-20T08:10:08.167Z,95775.72
2022-11-20T08:14:20.414Z,95776.56
2022-11-20T08:18:33.087Z,95774.78
2022-11-20T08:22:45.739Z,95784.25
2022-11-20T08:27:00.805Z,95787.22
2022-11-20T08:31:13.050Z,95773.84
2022-11-20T08:35:25.340Z,95773.66
2022-11-20T08:39:37.572Z,95775.00
2022-11-20T08:43:50.627Z,95777.28
2022-11-20T08:48:04.567Z,95776.44
2022-11-20T08:52:16.929Z,95777.53
2022-11-20T08:56:29.483Z,95779.81
2022-11-20T09:00:41.771Z,95776.75
2022-11-20T09:04:55.131Z,95778.91
2022-11-20T09:09:07.565Z,95780.31
2022-11-20T09:13:20.496Z,95772.06
2022-11-20T09:17:32.986Z,95770.56
2022-11-20T09:21:45.243Z,95776.38
2022-11-20T09:26:01.314Z,95773.53
2022-11-20T09:30:15.327Z,95774.03
2022-11-20T09:34:27.657Z,95764.03
2022-11-20T09:38:39.931Z,95764.22
2022-11-20T09:43:05.200Z,95748.31
2022-11-20T09:47:32.085Z,95757.94
2022-11-20T09:52:00.089Z,95769.41
2022-11-20T09:56:14.346Z,95748.47
2022-11-20T10:00:29.917Z,95747.25
2022-11-20T10:04:49.049Z,95747.41
2022-11-20T10:09:07.276Z,95736.56
2022-11-20T10:13:23.317Z,95741.31
2022-11-20T10:17:53.777Z,95748.63
2022-11-20T10:23:00.151Z,95741.44
2022-11-20T10:27:33.698Z,95739.16
2022-11-20T10:32:06.500Z,95727.09
2022-11-20T10:36:45.957Z,95725.09
2022-11-20T10:41:23.208Z,95738.53
2022-11-20T10:45:44.886Z,95734.78
2022-11-20T10:50:02.630Z,95734.69
2022-11-20T10:54:26.032Z,95735.09
2022-11-20T10:59:09.986Z,95737.25
2022-11-20T11:03:29.732Z,95726.13
2022-11-20T11:07:43.164Z,95712.94
2022-11-20T11:11:55.543Z,95726.50
2022-11-20T11:16:07.794Z,95719.66
2022-11-20T11:20:28.971Z,95715.16
2022-11-20T11:24:53.859Z,95706.50
2022-11-20T11:29:06.566Z,95699.94
2022-11-20T11:33:31.246Z,95700.50
2022-11-20T11:37:43.511Z,95696.88
2022-11-20T11:41:55.942Z,95696.34
2022-11-20T11:46:26.743Z,95700.44
2022-11-20T11:50:49.927Z,95709.19
2022-11-20T11:55:10.286Z,95698.66
2022-11-20T11:59:48.884Z,95697.56
2022-11-20T12:04:17.969Z,95690.78
2022-11-20T12:08:58.777Z,95703.53
2022-11-20T12:13:43.202Z,95715.16
2022-11-20T12:17:55.553Z,95713.19
2022-11-20T12:22:28.843Z,95696.22
2022-11-20T12:27:02.868Z,95706.00
2022-11-20T12:31:54.641Z,95700.06
2022-11-20T12:36:19.277Z,95690.84
2022-11-20T12:40:50.335Z,95687.97
2022-11-20T12:45:17.333Z,95686.91
2022-11-20T12:49:39.712Z,95676.84
2022-11-20T12:54:08.692Z,95686.63
2022-11-20T12:58:34.768Z,95689.97
2022-11-20T13:03:18.974Z,95688.47
2022-11-20T13:07:32.365Z,95688.00
2022-11-20T13:12:07.755Z,95684.47
2022-11-20T13:16:38.582Z,95679.25
2022-11-20T13:20:51.418Z,95678.19
2022-11-20T13:25:03.753Z,95683.53
2022-11-20T13:29:20.833Z,95678.34
2022-11-20T13:33:36.862Z,95673.41
2022-11-20T13:37:49.196Z,95683.16
2022-11-20T13:42:02.591Z,95663.19
2022-11-20T13:46:14.983Z,95671.75
2022-11-20T13:50:45.985Z,95673.88
2022-11-20T13:55:04.102Z,95676.44
2022-11-20T13:59:42.132Z,95656.13
2022-11-20T14:04:10.386Z,95667.91
2022-11-20T14:08:34.370Z,95660.56
2022-11-20T14:12:56.802Z,95661.50
2022-11-20T14:17:24.705Z,95666.06
2022-11-20T14:21:36.970Z,95665.00
2022-11-20T14:25:49.344Z,95673.69
2022-11-20T14:30:02.782Z,95665.16
2022-11-20T14:34:19.644Z,95666.22
2022-11-20T14:38:34.297Z,95659.63
2022-11-20T14:42:50.511Z,95655.53
2022-11-20T14:47:05.339Z,95656.78
2022-11-20T14:51:40.055Z,95652.31
2022-11-20T14:56:03.786Z,95647.16
2022-11-20T15:00:16.010Z,95655.84
2022-11-20T15:04:28.451Z,95665.94
2022-11-20T15:08:52.858Z,95664.53
2022-11-20T15:13:38.466Z,95658.75
2022-11-20T15:17:50.800Z,95650.59
2022-11-20T15:22:03.510Z,95671.19
2022-11-20T15:26:22.298Z,95670.75
2022-11-20T15:30:34.657Z,95661.13
2022-11-20T15:34:47.034Z,95662.22
2022-11-20T15:38:59.370Z,95663.22
2022-11-20T15:43:13.581Z,95651.91
2022-11-20T15:47:33.097Z,95668.81
2022-11-20T15:51:48.709Z,95658.00
2022-11-20T15:56:01.115Z,95658.69
2022-11-20T16:00:14.828Z,95652.78
2022-11-20T16:04:28.633Z,95660.59
2022-11-20T16:08:41.160Z,95665.44
2022-11-20T16:13:20.346Z,95654.13
2022-11-20T16:17:44.206Z,95654.44
2022-11-20T16:22:02.252Z,95646.78
2022-11-20T16:26:18.533Z,95638.81
2022-11-20T16:30:30.891Z,95643.41
2022-11-20T16:34:43.159Z,95630.31
2022-11-20T16:38:57.332Z,95626.47
2022-11-20T16:43:12.295Z,95637.44
2022-11-20T16:47:24.797Z,95621.38
2022-11-20T16:51:37.220Z,95638.66
2022-11-20T16:55:49.676Z,95638.28
2022-11-20T17:00:02.842Z,95634.31
2022-11-20T17:04:15.508Z,95627.22
2022-11-20T17:08:31.257Z,95628.75
2022-11-20T17:12:44.714Z,95618.94
2022-11-20T17:16:57.246Z,95626.94
2022-11-20T17:21:09.578Z,95623.69
2022-11-20T17:25:33.731Z,95618.78
2022-11-20T17:29:46.174Z,95614.78
2022-11-20T17:34:01.035Z,95618.22
2022-11-20T17:38:13.302Z,95613.78
2022-11-20T17:42:28.571Z,95603.28
2022-11-20T17:46:41.917Z,95596.28
2022-11-20T17:50:54.189Z,95601.84
2022-11-20T17:55:06.961Z,95604.44
2022-11-20T17:59:19.836Z,95601.41
2022-11-20T18:03:32.106Z,95586.00
2022-11-20T18:07:44.424Z,95578.84
2022-11-20T18:11:56.877Z,95596.25
2022-11-20T18:16:09.185Z,95577.22
2022-11-20T18:20:29.003Z,95583.34
2022-11-20T18:24:42.899Z,95586.09
2022-11-20T18:28:55.359Z,95577.06
2022-11-20T18:33:18.065Z,95565.38
2022-11-20T18:37:32.602Z,95569.56
2022-11-20T18:42:03.950Z,95565.19
2022-11-20T18:46:26.221Z,95556.47
2022-11-20T18:50:39.100Z,95558.66
2022-11-20T18:54:52.100Z,95553.72
2022-11-20T18:59:06.188Z,95552.88
2022-11-20T19:03:18.513Z,95544.88
2022-11-20T19:07:31.408Z,95533.66
2022-11-20T19:11:44.417Z,95531.94
2022-11-20T19:16:03.180Z,95529.44
2022-11-20T19:20:15.639Z,95523.06
2022-11-20T19:24:29.184Z,95521.22
2022-11-20T19:28:41.662Z,95514.59
2022-11-20T19:32:53.981Z,95522.44
2022-11-20T19:37:06.358Z,95511.78
2022-11-20T19:41:21.118Z,95518.66
2022-11-20T19:45:33.479Z,95504.34
2022-11-20T19:49:45.778Z,95520.44
2022-11-20T19:53:59.277Z,95515.59
2022-11-20T19:58:11.551Z,95502.72
2022-11-20T20:02:23.830Z,95488.41
2022-11-20T20:06:39.515Z,95494.75
2022-11-20T20:10:56.636Z,95473.88
2022-11-20T20:15:11.642Z,95473.22
2022-11-20T20:19:24.149Z,95480.88
2022-11-20T20:23:36.968Z,95477.81
2022-11-20T20:27:49.294Z,95466.72
2022-11-20T20:32:01.705Z,95472.63
2022-11-20T20:36:16.700Z,95472.72
2022-11-20T20:40:28.965Z,95463.53
2022-11-20T20:44:59.959Z,95458.88
2022-11-20T20:49:12.228Z,95460.28
2022-11-20T20:53:25.270Z,95465.31
2022-11-20T20:57:38.159Z,95462.56
2022-11-20T21:01:50.464Z,95458.88
2022-11-20T21:06:04.061Z,95457.34
2022-11-20T21:10:21.066Z,95457.56
2022-11-20T21:14:36.142Z,95458.66
2022-11-20T21:18:49.219Z,95448.91
2022-11-20T21:23:01.523Z,95445.75
2022-11-20T21:27:13.838Z,95441.59
2022-11-20T21:31:27.452Z,95442.88
2022-11-20T21:35:39.767Z,95446.69
2022-11-20T21:39:52.741Z,95446.91
2022-11-20T21:48:40.636Z,95462.81
2022-11-20T21:52:53.480Z,95469.63
2022-11-20T21:57:05.753Z,95487.38
2022-11-20T22:01:29.151Z,95499.47
2022-11-20T22:05:41.643Z,95480.69
2022-11-20T22:09:53.899Z,95476.34
2022-11-20T22:14:21.680Z,95467.66
2022-11-20T22:18:34.208Z,95467.13
2022-11-20T22:22:46.503Z,95449.06
2022-11-20T22:26:59.254Z,95457.19
2022-11-20T22:31:11.997Z,95464.53
2022-11-20T22:35:24.260Z,95466.81
2022-11-20T22:39:37.625Z,95478.28
2022-11-20T22:43:54.909Z,95480.81
2022-11-20T22:48:07.250Z,95476.81
2022-11-20T22:52:19.538Z,95486.34
2022-11-20T22:56:39.850Z,95477.72
2022-11-20T23:00:52.764Z,95486.75
2022-11-20T23:05:05.289Z,95484.13
2022-11-20T23:09:18.285Z,95472.84
2022-11-20T23:13:31.035Z,95474.16
2022-11-20T23:17:43.567Z,95476.81
2022-11-20T23:21:55.851Z,95461.28
2022-11-20T23:26:11.135Z,95466.44
2022-11-20T23:30:23.428Z,95471.78
2022-11-20T23:34:35.683Z,95471.13
2022-11-20T23:38:48.087Z,95472.44
2022-11-20T23:43:18.653Z,95457.66
2022-11-20T23:47:30.918Z,95474.72
2022-11-20T23:51:43.182Z,95463.88
2022-11-20T23:55:59.336Z,95480.50
